Time;durP1;ratioP1;P1;durP2;ratioP2;P2;SDS_P1;SDS_P2;PMS_P1;PMS_P2;Temp;Humidity;BMP_temperature;BMP_pressure;BME280_temperature;BME280_humidity;BME280_pressure;Samples;Min_cycle;Max_cycle;Signal;HPM_P1;HPM_P2
2022/10/23 00:01:54;;;;;;;0.65;0.50;;;;;;;17.61;53.41;93721.72;5015389;28;20043;-86
2022/10/23 00:04:20;;;;;;;0.52;0.47;;;;;;;17.63;53.74;93724.72;5031112;28;20036;-87
2022/10/23 00:06:46;;;;;;;0.47;0.47;;;;;;;17.64;53.17;93731.69;5031233;28;20524;-86
2022/10/23 00:09:14;;;;;;;0.30;0.28;;;;;;;17.64;53.21;93733.66;5031687;28;20530;-87
2022/10/23 00:11:41;;;;;;;0.75;0.50;;;;;;;17.63;53.61;93729.44;5037971;28;20431;-88
2022/10/23 00:14:06;;;;;;;0.50;0.50;;;;;;;17.63;53.30;93727.44;5066149;28;20101;-87
2022/10/23 00:16:33;;;;;;;0.50;0.50;;;;;;;17.66;53.26;93729.22;5025522;28;20040;-86
2022/10/23 00:18:58;;;;;;;0.65;0.45;;;;;;;17.63;53.58;93730.19;5022361;28;20117;-86
2022/10/23 00:21:24;;;;;;;0.68;0.40;;;;;;;17.62;53.32;93731.41;5027364;28;20498;-87
2022/10/23 00:23:49;;;;;;;0.60;0.50;;;;;;;17.63;53.74;93735.66;5035408;28;20041;-87
2022/10/23 00:26:15;;;;;;;0.45;0.38;;;;;;;17.63;53.56;93718.50;5047323;28;20051;-87
2022/10/23 00:28:45;;;;;;;0.43;0.43;;;;;;;17.63;53.18;93723.97;5015169;28;20305;-87
2022/10/23 00:31:10;;;;;;;0.57;0.50;;;;;;;17.63;53.20;93718.50;5019219;28;20033;-86
2022/10/23 00:33:36;;;;;;;0.30;0.30;;;;;;;17.63;53.53;93723.97;5052565;28;20043;-86
2022/10/23 00:36:04;;;;;;;0.40;0.30;;;;;;;17.63;53.16;93723.97;5034286;28;20384;-87
2022/10/23 00:38:29;;;;;;;0.30;0.30;;;;;;;17.66;53.50;93723.75;4999224;28;20033;-87
2022/10/23 00:40:55;;;;;;;0.50;0.50;;;;;;;17.61;53.65;93723.72;5028610;28;20036;-87
2022/10/23 00:43:22;;;;;;;0.25;0.25;;;;;;;17.63;53.50;93719.25;5047735;28;20727;-89
2022/10/23 00:45:48;;;;;;;0.38;0.38;;;;;;;17.63;53.27;93726.69;5032776;28;20029;-86
2022/10/23 00:48:13;;;;;;;0.40;0.40;;;;;;;17.63;53.01;93721.22;5034870;28;20036;-86
2022/10/23 00:50:39;;;;;;;0.45;0.35;;;;;;;17.64;53.37;93723.50;5018708;28;20040;-86
2022/10/23 00:53:04;;;;;;;0.88;0.57;;;;;;;17.62;53.23;93723.22;5034377;28;20499;-90
2022/10/23 00:55:29;;;;;;;0.38;0.38;;;;;;;17.62;53.07;93715.03;5034596;28;20037;-87
2022/10/23 00:57:55;;;;;;;0.68;0.50;;;;;;;17.63;53.42;93723.97;5031639;28;20072;-90
2022/10/23 01:00:26;;;;;;;0.38;0.38;;;;;;;17.60;53.27;93714.78;5014747;28;20036;-88
2022/10/23 01:02:52;;;;;;;0.47;0.47;;;;;;;17.61;53.24;93715.50;5028052;28;20048;-87
2022/10/23 01:05:18;;;;;;;1.17;0.63;;;;;;;17.62;53.47;93712.28;5029967;28;20037;-87
2022/10/23 01:07:53;;;;;;;0.55;0.40;;;;;;;17.61;53.50;93708.06;5034208;28;20044;-86
2022/10/23 01:10:33;;;;;;;0.50;0.45;;;;;;;17.62;53.18;93704.09;5035815;28;20058;-87
2022/10/23 01:13:10;;;;;;;0.50;0.50;;;;;;;17.63;53.01;93704.81;5017106;28;20053;-87
2022/10/23 01:15:44;;;;;;;0.38;0.38;;;;;;;17.62;53.15;93697.88;5016354;28;20035;-87
2022/10/23 01:18:26;;;;;;;1.20;0.60;;;;;;;17.61;53.34;93708.06;5043023;28;20546;-88
2022/10/23 01:20:59;;;;;;;0.20;0.20;;;;;;;17.66;53.01;93704.59;5031261;28;20056;-88
2022/10/23 01:23:43;;;;;;;0.50;0.40;;;;;;;17.63;53.16;93710.28;5014038;28;20129;-87
2022/10/23 01:26:42;;;;;;;0.35;0.32;;;;;;;17.63;53.27;93705.56;5064071;28;20068;-86
2022/10/23 01:29:30;;;;;;;0.35;0.35;;;;;;;17.64;52.94;93698.13;5067985;28;20128;-87
2022/10/23 01:31:59;;;;;;;0.57;0.28;;;;;;;17.62;53.02;93686.94;5036117;28;20125;-86
2022/10/23 01:34:29;;;;;;;1.15;0.70;;;;;;;17.59;53.58;93685.94;5050494;28;20033;-87
2022/10/23 01:36:54;;;;;;;0.65;0.47;;;;;;;17.62;53.25;93684.94;5050441;28;20044;-86
2022/10/23 01:39:28;;;;;;;0.40;0.40;;;;;;;17.61;53.27;93680.72;5033778;28;20032;-86
2022/10/23 01:41:56;;;;;;;0.47;0.47;;;;;;;17.60;53.27;93689.41;5033996;28;20029;-86
2022/10/23 01:44:30;;;;;;;0.68;0.40;;;;;;;17.60;53.22;93686.69;5033641;28;20045;-87
2022/10/23 01:46:56;;;;;;;0.38;0.30;;;;;;;17.58;53.47;93680.97;5035026;28;20097;-86
2022/10/23 01:49:21;;;;;;;0.40;0.38;;;;;;;17.60;53.33;93679.22;5033210;28;20029;-87
2022/10/23 01:51:53;;;;;;;0.38;0.30;;;;;;;17.60;53.28;93678.47;5031009;28;20347;-86
2022/10/23 01:54:19;;;;;;;0.45;0.45;;;;;;;17.61;53.42;93683.44;5034222;28;20056;-87
2022/10/23 01:56:46;;;;;;;0.40;0.40;;;;;;;17.60;53.51;93681.22;5033561;28;20028;-87
2022/10/23 01:59:13;;;;;;;0.45;0.40;;;;;;;17.60;53.47;93681.22;5030053;28;20056;-87
2022/10/23 02:01:40;;;;;;;0.35;0.35;;;;;;;17.63;53.45;93672.03;5024923;28;20557;-88
2022/10/23 02:04:06;;;;;;;0.30;0.30;;;;;;;17.59;53.57;93680.47;5032091;28;20529;-87
2022/10/23 02:06:31;;;;;;;1.23;0.30;;;;;;;17.63;53.12;93680.97;5033194;28;20032;-86
2022/10/23 02:08:57;;;;;;;0.50;0.30;;;;;;;17.61;53.30;93680.72;5049958;28;20098;-87
2022/10/23 02:11:22;;;;;;;0.40;0.40;;;;;;;17.59;53.74;93672.28;5032731;28;20583;-87
2022/10/23 02:14:13;;;;;;;0.45;0.32;;;;;;;17.62;53.33;93674.00;5049974;28;20147;-87
2022/10/23 02:16:46;;;;;;;0.45;0.43;;;;;;;17.61;53.03;93669.03;5052062;28;20037;-86
2022/10/23 02:19:32;;;;;;;0.90;0.65;;;;;;;17.61;53.18;93671.78;5028208;28;20503;-86
2022/10/23 02:22:07;;;;;;;0.30;0.30;;;;;;;17.60;53.27;93665.56;5015760;28;20427;-87
2022/10/23 02:24:45;;;;;;;0.38;0.30;;;;;;;17.63;53.33;93669.28;5011380;28;20394;-86
2022/10/23 02:27:17;;;;;;;0.50;0.30;;;;;;;17.60;53.40;93668.28;5001105;28;20121;-87
2022/10/23 02:29:45;;;;;;;0.65;0.50;;;;;;;17.61;53.49;93671.78;4993838;28;20141;-88
2022/10/23 02:32:11;;;;;;;0.60;0.45;;;;;;;17.59;53.24;93666.06;5010050;28;20164;-87
2022/10/23 02:34:36;;;;;;;0.30;0.30;;;;;;;17.60;53.38;93667.56;5009933;28;20492;-86
2022/10/23 02:37:02;;;;;;;0.40;0.40;;;;;;;17.59;53.38;93660.59;5013532;28;20099;-87
2022/10/23 02:39:27;;;;;;;0.43;0.43;;;;;;;17.57;53.67;93669.28;5009489;28;20407;-86
2022/10/23 02:41:57;;;;;;;0.40;0.40;;;;;;;17.61;52.97;93672.53;5008934;28;20091;-86
2022/10/23 02:44:42;;;;;;;0.60;0.40;;;;;;;17.60;53.25;93668.28;5012350;28;20523;-87
2022/10/23 02:47:26;;;;;;;1.55;0.30;;;;;;;17.60;53.22;93668.28;5044525;28;20135;-86
2022/10/23 02:50:00;;;;;;;0.30;0.30;;;;;;;17.61;53.55;93669.03;5039022;28;20042;-87
2022/10/23 02:52:37;;;;;;;0.25;0.20;;;;;;;17.60;53.27;93668.28;5029914;28;20041;-87
2022/10/23 02:55:30;;;;;;;0.40;0.32;;;;;;;17.59;53.26;93674.25;5010675;28;20041;-86
2022/10/23 02:58:02;;;;;;;0.47;0.47;;;;;;;17.62;53.34;93671.28;5005199;28;20037;-87
2022/10/23 03:00:28;;;;;;;0.30;0.30;;;;;;;17.60;53.04;93671.03;5026205;28;20057;-88
2022/10/23 03:02:58;;;;;;;0.40;0.40;;;;;;;17.58;53.23;93659.84;5003622;28;20048;-86
2022/10/23 03:05:30;;;;;;;0.40;0.40;;;;;;;17.59;53.30;93657.84;4992837;28;20034;-87
2022/10/23 03:07:55;;;;;;;0.52;0.40;;;;;;;17.59;53.28;93653.13;5000852;28;20049;-88
2022/10/23 03:10:20;;;;;;;0.32;0.28;;;;;;;17.64;53.18;93651.66;5009217;28;20033;-87
2022/10/23 03:12:47;;;;;;;0.38;0.38;;;;;;;17.61;53.10;93652.63;4998524;28;20041;-86
2022/10/23 03:15:13;;;;;;;0.30;0.30;;;;;;;17.59;53.41;93636.00;4992501;28;20038;-87
2022/10/23 03:17:38;;;;;;;0.30;0.30;;;;;;;17.58;53.39;93642.69;4996001;28;20055;-87
2022/10/23 03:20:05;;;;;;;0.50;0.50;;;;;;;17.57;53.24;93638.47;5020160;28;20045;-89
2022/10/23 03:22:30;;;;;;;0.30;0.30;;;;;;;17.57;53.53;93635.75;5015643;28;20045;-93
2022/10/23 03:24:56;;;;;;;0.32;0.32;;;;;;;17.60;53.54;93637.47;5045619;28;20414;-87
2022/10/23 03:27:22;;;;;;;0.40;0.40;;;;;;;17.59;53.57;93641.47;5031580;28;20040;-87
2022/10/23 03:29:47;;;;;;;0.55;0.43;;;;;;;17.59;53.36;93636.00;5032023;28;20406;-86
2022/10/23 03:32:13;;;;;;;0.32;0.32;;;;;;;17.62;53.46;93630.28;5028125;28;20040;-87
2022/10/23 03:34:38;;;;;;;0.30;0.30;;;;;;;17.58;53.60;93634.50;5012439;28;20033;-87
2022/10/23 03:37:03;;;;;;;0.52;0.50;;;;;;;17.58;52.91;93642.69;5014138;28;20095;-88
2022/10/23 03:39:29;;;;;;;0.30;0.30;;;;;;;17.58;53.42;93642.69;5031735;28;20093;-87
2022/10/23 03:41:54;;;;;;;0.30;0.30;;;;;;;17.58;53.43;93632.50;5048102;28;20376;-87
2022/10/23 03:44:20;;;;;;;0.60;0.50;;;;;;;17.57;53.59;93639.22;5031488;28;20048;-86
2022/10/23 03:46:45;;;;;;;0.40;0.40;;;;;;;17.58;53.54;93629.03;5048788;28;20040;-86
2022/10/23 03:49:11;;;;;;;0.45;0.22;;;;;;;17.57;53.12;93630.28;5012677;28;20041;-86
2022/10/23 03:51:40;;;;;;;0.60;0.45;;;;;;;17.58;53.38;93623.56;5036013;28;20044;-87
2022/10/23 03:54:05;;;;;;;0.55;0.30;;;;;;;17.59;53.09;93628.53;5044475;28;20041;-89
2022/10/23 03:56:31;;;;;;;0.40;0.40;;;;;;;17.57;53.27;93622.81;5032645;28;20118;-86
2022/10/23 03:58:56;;;;;;;0.60;0.50;;;;;;;17.58;53.44;93627.03;5032920;28;20037;-87
2022/10/23 04:01:21;;;;;;;0.45;0.45;;;;;;;17.61;53.28;93619.84;5035896;28;20044;-90
2022/10/23 04:03:47;;;;;;;0.73;0.38;;;;;;;17.60;53.48;93629.28;5036162;28;20045;-87
2022/10/23 04:06:12;;;;;;;0.30;0.30;;;;;;;17.58;53.05;93627.03;5035262;28;20041;-87
2022/10/23 04:08:38;;;;;;;0.30;0.30;;;;;;;17.59;53.51;93627.78;5022086;28;20036;-87
2022/10/23 04:11:03;;;;;;;0.20;0.20;;;;;;;17.59;53.48;93631.25;5034300;28;20037;-87
2022/10/23 04:13:29;;;;;;;0.73;0.40;;;;;;;17.61;53.25;93630.78;5024081;28;20048;-86
2022/10/23 04:15:54;;;;;;;0.30;0.30;;;;;;;17.58;53.37;93632.50;5032743;28;20033;-88
2022/10/23 04:18:19;;;;;;;0.30;0.30;;;;;;;17.59;53.17;93634.00;5058579;28;20087;-87
2022/10/23 04:20:51;;;;;;;0.40;0.40;;;;;;;17.59;53.55;93634.00;5032224;28;20529;-92
2022/10/23 04:23:16;;;;;;;0.22;0.22;;;;;;;17.59;52.77;93631.25;5006365;28;20407;-87
2022/10/23 04:25:42;;;;;;;0.57;0.40;;;;;;;17.58;53.48;93635.25;5021067;28;20025;-87
2022/10/23 04:28:07;;;;;;;0.45;0.38;;;;;;;17.58;53.03;93635.25;5026719;28;20052;-87
2022/10/23 04:30:33;;;;;;;0.30;0.30;;;;;;;17.62;53.19;93629.53;4998461;28;20048;-87
2022/10/23 04:32:58;;;;;;;0.30;0.30;;;;;;;17.56;53.50;93637.72;5032148;28;20446;-87
2022/10/23 04:35:24;;;;;;;0.20;0.20;;;;;;;17.58;53.03;93637.97;5015098;28;20041;-87
2022/10/23 04:37:49;;;;;;;0.32;0.32;;;;;;;17.57;53.29;93639.22;5026667;28;20515;-87
2022/10/23 04:40:14;;;;;;;0.28;0.28;;;;;;;17.58;53.16;93632.50;4995419;28;20037;-86
2022/10/23 04:42:40;;;;;;;0.30;0.30;;;;;;;17.57;53.21;93646.69;4984926;28;20052;-86
2022/10/23 04:45:06;;;;;;;0.30;0.30;;;;;;;17.59;53.50;93636.72;4995289;28;20045;-88
2022/10/23 04:47:31;;;;;;;0.38;0.38;;;;;;;17.57;53.47;93639.22;5031835;28;20033;-86
2022/10/23 04:49:56;;;;;;;0.52;0.30;;;;;;;17.57;53.11;93630.28;5015701;28;20040;-87
2022/10/23 04:52:22;;;;;;;0.30;0.30;;;;;;;17.58;53.02;93637.97;4998268;28;20043;-86
2022/10/23 04:54:47;;;;;;;0.30;0.30;;;;;;;17.55;53.19;93630.78;5014383;28;20037;-86
2022/10/23 04:57:13;;;;;;;0.30;0.30;;;;;;;17.55;53.22;93622.56;5014662;28;20403;-87
2022/10/23 04:59:38;;;;;;;0.65;0.30;;;;;;;17.56;53.53;93612.38;5014959;28;20052;-87
2022/10/23 05:02:03;;;;;;;0.22;0.22;;;;;;;17.57;53.24;93619.34;4998093;28;20036;-87
2022/10/23 05:04:29;;;;;;;0.45;0.40;;;;;;;17.55;53.68;93619.84;5014196;28;20052;-87
2022/10/23 05:06:54;;;;;;;0.35;0.25;;;;;;;17.58;53.26;93624.31;5013140;28;20029;-86
2022/10/23 05:09:21;;;;;;;0.20;0.20;;;;;;;17.56;53.07;93624.06;4986656;28;20045;-87
2022/10/23 05:11:46;;;;;;;0.47;0.40;;;;;;;17.56;53.06;93615.13;5028224;28;20108;-87
2022/10/23 05:14:12;;;;;;;0.60;0.40;;;;;;;17.55;53.47;93611.63;5008117;28;20049;-87
2022/10/23 05:16:51;;;;;;;0.20;0.20;;;;;;;17.55;53.18;93600.72;5011754;28;20033;-87
2022/10/23 05:19:25;;;;;;;0.30;0.28;;;;;;;17.56;53.20;93602.19;5017132;28;20041;-87
2022/10/23 05:21:54;;;;;;;0.28;0.28;;;;;;;17.55;53.13;93597.22;5035201;28;20072;-87
2022/10/23 05:24:22;;;;;;;0.68;0.30;;;;;;;17.55;53.39;93595.25;5034154;28;20045;-89
2022/10/23 05:26:51;;;;;;;0.20;0.20;;;;;;;17.55;53.33;93589.03;5015037;28;20041;-87
2022/10/23 05:29:17;;;;;;;0.20;0.20;;;;;;;17.54;53.12;93593.03;5026549;28;20126;-86
2022/10/23 05:31:43;;;;;;;0.30;0.30;;;;;;;17.55;53.46;93599.97;5014757;28;20120;-87
2022/10/23 05:34:10;;;;;;;0.20;0.20;;;;;;;17.55;53.27;93597.22;5026760;28;20494;-87
2022/10/23 05:36:36;;;;;;;0.20;0.20;;;;;;;17.54;53.22;93587.56;5034509;28;20048;-86
2022/10/23 05:39:01;;;;;;;0.47;0.40;;;;;;;17.55;53.29;93589.78;5017908;28;20052;-87
2022/10/23 05:41:27;;;;;;;0.20;0.20;;;;;;;17.54;53.04;93590.31;5016819;28;20715;-88
2022/10/23 05:43:53;;;;;;;0.30;0.30;;;;;;;17.54;53.08;93585.56;5034567;28;20398;-87
2022/10/23 05:46:18;;;;;;;0.30;0.30;;;;;;;17.58;53.22;93590.75;5034310;28;20040;-86
2022/10/23 05:48:43;;;;;;;0.20;0.20;;;;;;;17.57;53.17;93586.53;5067924;28;20028;-87
2022/10/23 05:51:09;;;;;;;0.30;0.30;;;;;;;17.53;52.96;93586.81;5034200;28;20036;-87
2022/10/23 05:53:35;;;;;;;0.30;0.30;;;;;;;17.55;53.17;93595.25;5030912;28;20067;-88
2022/10/23 05:56:05;;;;;;;0.40;0.30;;;;;;;17.55;53.38;93589.03;5014380;28;20037;-87
2022/10/23 05:58:31;;;;;;;0.40;0.40;;;;;;;17.55;53.20;93589.78;5014106;28;20435;-87
2022/10/23 06:00:56;;;;;;;0.60;0.40;;;;;;;17.54;53.35;93585.56;5030301;28;20039;-86
2022/10/23 06:03:22;;;;;;;0.30;0.30;;;;;;;17.55;52.87;93591.75;5013550;28;20040;-86
2022/10/23 06:05:50;;;;;;;0.30;0.30;;;;;;;17.55;52.82;93591.75;5034369;28;20495;-86
2022/10/23 06:08:16;;;;;;;0.30;0.30;;;;;;;17.56;52.97;93590.53;5033404;28;20502;-87
2022/10/23 06:10:41;;;;;;;0.30;0.30;;;;;;;17.56;52.97;93582.31;5033220;28;20115;-88
2022/10/23 06:13:07;;;;;;;0.57;0.30;;;;;;;17.56;53.00;93594.00;5017041;28;20092;-91
2022/10/23 06:15:32;;;;;;;0.30;0.30;;;;;;;17.55;52.80;93583.56;5033868;28;20407;-87
2022/10/23 06:18:01;;;;;;;0.30;0.30;;;;;;;17.57;52.95;93590.03;5032952;28;20040;-87
2022/10/23 06:20:27;;;;;;;0.20;0.20;;;;;;;17.57;52.83;93590.03;5023886;28;20115;-89
2022/10/23 06:22:52;;;;;;;0.47;0.40;;;;;;;17.59;52.96;93589.53;5050071;28;20059;-87
2022/10/23 06:25:17;;;;;;;0.30;0.30;;;;;;;17.60;52.67;93588.28;5048942;28;20044;-87
2022/10/23 06:27:43;;;;;;;0.28;0.28;;;;;;;17.59;53.01;93587.53;5049984;28;20036;-86
2022/10/23 06:30:09;;;;;;;0.30;0.30;;;;;;;17.61;52.87;93595.22;5032423;28;20036;-88
2022/10/23 06:32:34;;;;;;;0.30;0.30;;;;;;;17.62;52.91;93594.72;5049640;28;20101;-87
2022/10/23 06:34:59;;;;;;;0.40;0.40;;;;;;;17.64;53.18;93592.28;5032676;28;20045;-86
2022/10/23 06:37:25;;;;;;;0.20;0.20;;;;;;;17.62;53.09;93600.19;5049330;28;20033;-87
2022/10/23 06:39:50;;;;;;;0.25;0.20;;;;;;;17.65;53.25;93603.97;5017787;28;20041;-86
2022/10/23 06:42:16;;;;;;;0.20;0.20;;;;;;;17.67;52.56;93601.47;5035989;28;20063;-86
2022/10/23 06:44:41;;;;;;;0.25;0.25;;;;;;;17.67;52.79;93599.47;5029204;28;20033;-86
2022/10/23 06:47:09;;;;;;;0.40;0.30;;;;;;;17.69;53.07;93604.44;5029343;28;20053;-86
2022/10/23 06:49:34;;;;;;;1.30;0.30;;;;;;;17.69;52.65;93615.38;5009387;28;20403;-86
2022/10/23 06:52:00;;;;;;;0.20;0.20;;;;;;;17.69;53.22;93612.66;5049762;28;20613;-87
2022/10/23 06:54:25;;;;;;;0.20;0.20;;;;;;;17.69;53.12;93615.38;5038695;28;20043;-87
2022/10/23 06:56:50;;;;;;;0.70;0.25;;;;;;;17.71;52.95;93619.09;5049445;28;20037;-88
2022/10/23 06:59:16;;;;;;;0.20;0.20;;;;;;;17.71;53.08;93613.63;5015825;28;20394;-87
2022/10/23 07:01:41;;;;;;;0.20;0.20;;;;;;;17.71;52.81;93621.84;5032670;28;20048;-86
2022/10/23 07:04:07;;;;;;;0.20;0.20;;;;;;;17.72;52.92;93609.66;5015358;28;20520;-87
2022/10/23 07:06:32;;;;;;;0.20;0.20;;;;;;;17.73;52.80;93616.63;5015186;28;20028;-86
2022/10/23 07:08:58;;;;;;;1.38;0.30;;;;;;;17.75;53.06;93608.63;5032377;28;20345;-87
2022/10/23 07:11:24;;;;;;;0.20;0.20;;;;;;;17.77;52.72;93608.13;5049129;28;20051;-86
2022/10/23 07:13:49;;;;;;;0.40;0.40;;;;;;;17.78;52.84;93618.56;5049247;28;20036;-87
2022/10/23 07:16:16;;;;;;;0.73;0.25;;;;;;;17.78;52.61;93618.56;5066882;28;20036;-86
2022/10/23 07:18:42;;;;;;;0.30;0.28;;;;;;;17.79;53.07;93636.47;5032265;28;20045;-86
2022/10/23 07:21:07;;;;;;;0.10;0.10;;;;;;;17.81;52.80;93623.03;4999482;28;20561;-88
2022/10/23 07:23:33;;;;;;;1.08;0.20;;;;;;;17.81;52.46;93628.50;5029070;28;20052;-86
2022/10/23 07:26:13;;;;;;;0.30;0.30;;;;;;;17.81;52.87;93620.31;5013084;28;20037;-86
2022/10/23 07:28:40;;;;;;;0.30;0.30;;;;;;;17.79;52.52;93620.06;5012932;28;20469;-86
2022/10/23 07:31:05;;;;;;;0.20;0.20;;;;;;;17.81;52.64;93625.03;4999103;28;20459;-86
2022/10/23 07:33:31;;;;;;;0.15;0.15;;;;;;;17.82;52.62;93623.78;5009645;28;20065;-90
2022/10/23 07:35:56;;;;;;;0.32;0.30;;;;;;;17.81;52.69;93623.03;4998282;28;20044;-86
2022/10/23 07:38:22;;;;;;;0.22;0.22;;;;;;;17.83;52.54;93628.00;5028736;28;20052;-86
2022/10/23 07:40:47;;;;;;;0.28;0.25;;;;;;;17.83;52.56;93630.75;4993260;28;20066;-86
2022/10/23 07:43:12;;;;;;;0.20;0.20;;;;;;;17.83;52.28;93630.75;5010085;28;20527;-87
2022/10/23 07:45:38;;;;;;;0.30;0.30;;;;;;;17.84;52.55;93623.28;5009338;28;20095;-86
2022/10/23 07:48:03;;;;;;;0.10;0.10;;;;;;;17.85;52.37;93625.53;4992530;28;20049;-86
2022/10/23 07:50:29;;;;;;;0.15;0.13;;;;;;;17.86;52.74;93626.28;5025655;28;20088;-87
2022/10/23 07:52:56;;;;;;;0.25;0.20;;;;;;;17.85;52.87;93620.06;5012773;28;20029;-87
2022/10/23 07:55:21;;;;;;;0.17;0.17;;;;;;;17.87;52.82;93611.34;4997810;28;20057;-87
2022/10/23 07:57:46;;;;;;;1.17;0.20;;;;;;;17.88;52.66;93618.31;5009601;28;20037;-86
2022/10/23 08:00:12;;;;;;;0.28;0.28;;;;;;;17.87;52.59;93603.88;4999159;28;20033;-87
2022/10/23 08:02:37;;;;;;;0.10;0.10;;;;;;;17.89;52.54;93608.84;4993034;28;20402;-86
2022/10/23 08:05:03;;;;;;;0.43;0.20;;;;;;;17.89;52.95;93608.84;5001414;28;20045;-86
2022/10/23 08:07:29;;;;;;;0.20;0.20;;;;;;;17.89;52.46;93603.38;5005643;28;20073;-86
2022/10/23 08:09:54;;;;;;;0.22;0.22;;;;;;;17.89;52.78;93606.88;5012617;28;20483;-87
2022/10/23 08:12:21;;;;;;;0.20;0.20;;;;;;;17.90;52.35;93594.69;5010814;28;20030;-90
2022/10/23 08:14:47;;;;;;;0.20;0.20;;;;;;;17.91;52.84;93604.38;5009565;28;20041;-87
2022/10/23 08:17:12;;;;;;;0.20;0.20;;;;;;;17.91;52.46;93601.66;5008798;28;20396;-87
2022/10/23 08:19:38;;;;;;;0.17;0.17;;;;;;;17.91;52.42;93601.66;5002209;28;20049;-86
2022/10/23 08:22:03;;;;;;;0.20;0.10;;;;;;;17.92;52.75;93591.44;5028972;28;20044;-86
2022/10/23 08:24:28;;;;;;;0.32;0.20;;;;;;;17.93;52.52;93593.69;5044399;28;20029;-86
2022/10/23 08:26:54;;;;;;;0.10;0.10;;;;;;;17.93;52.74;93587.47;5018279;28;20407;-86
2022/10/23 08:29:19;;;;;;;2.08;0.15;;;;;;;17.93;52.38;93588.22;5032557;28;20461;-86
2022/10/23 08:31:45;;;;;;;0.20;0.20;;;;;;;17.94;52.58;93588.97;5033100;28;20592;-86
2022/10/23 08:34:10;;;;;;;0.50;0.15;;;;;;;17.94;52.70;93581.50;5032251;28;20055;-87
2022/10/23 08:36:38;;;;;;;0.40;0.20;;;;;;;17.95;52.31;93576.78;5049177;28;20370;-86
2022/10/23 08:39:03;;;;;;;0.20;0.20;;;;;;;17.95;52.60;93574.78;5031527;28;20487;-86
2022/10/23 08:41:32;;;;;;;0.20;0.20;;;;;;;17.96;53.03;93573.53;5015161;28;20079;-86
2022/10/23 08:44:16;;;;;;;0.45;0.30;;;;;;;17.98;52.09;93570.28;5035724;28;20040;-86
2022/10/23 08:46:45;;;;;;;0.22;0.20;;;;;;;17.97;52.77;93566.78;5070737;28;20094;-87
2022/10/23 08:49:37;;;;;;;0.20;0.20;;;;;;;17.97;52.47;93566.06;5035905;28;20083;-91
2022/10/23 08:52:14;;;;;;;0.10;0.10;;;;;;;17.98;52.42;93573.75;5038235;28;20075;-87
2022/10/23 08:55:03;;;;;;;0.20;0.20;;;;;;;17.97;52.55;93568.81;5027505;28;20499;-86
2022/10/23 08:57:35;;;;;;;0.15;0.15;;;;;;;17.98;52.39;93565.53;5066319;28;20041;-86
2022/10/23 09:00:05;;;;;;;0.20;0.20;;;;;;;17.96;52.72;93568.06;5009591;28;20044;-87
2022/10/23 09:02:41;;;;;;;0.40;0.30;;;;;;;17.98;52.51;93571.00;5052355;28;20545;-87
2022/10/23 09:05:16;;;;;;;0.22;0.20;;;;;;;17.98;52.57;93564.81;5051167;28;20040;-86
2022/10/23 09:07:52;;;;;;;0.10;0.10;;;;;;;17.99;52.48;93574.50;5040653;28;20056;-86
2022/10/23 09:10:24;;;;;;;0.20;0.20;;;;;;;17.97;52.46;93575.00;5034475;28;20044;-87
2022/10/23 09:12:49;;;;;;;0.20;0.20;;;;;;;17.98;52.63;93581.94;5034738;28;20032;-86
2022/10/23 09:15:29;;;;;;;0.28;0.20;;;;;;;17.99;52.77;93577.22;5031263;28;20057;-87
2022/10/23 09:17:57;;;;;;;0.68;0.20;;;;;;;18.00;52.69;93574.00;5036139;28;20037;-86
2022/10/23 09:20:33;;;;;;;0.15;0.15;;;;;;;17.99;52.77;93574.50;5033960;28;20521;-86
2022/10/23 09:23:01;;;;;;;0.20;0.20;;;;;;;18.00;52.64;93578.72;5035374;28;20096;-86
2022/10/23 09:25:28;;;;;;;0.20;0.20;;;;;;;18.01;52.96;93580.94;5033746;28;20114;-87
2022/10/23 09:27:56;;;;;;;0.20;0.20;;;;;;;17.99;52.44;93572.50;5034734;28;20056;-86
2022/10/23 09:30:33;;;;;;;1.23;0.20;;;;;;;17.99;52.64;93572.50;5024504;28;20104;-86
2022/10/23 09:32:59;;;;;;;0.10;0.10;;;;;;;18.02;52.63;93574.22;5034397;28;20189;-86
2022/10/23 09:35:27;;;;;;;0.20;0.20;;;;;;;18.03;52.40;93580.44;5033600;28;20079;-86
2022/10/23 09:37:52;;;;;;;0.22;0.13;;;;;;;18.01;52.54;93570.00;5035019;28;20098;-86
2022/10/23 09:40:29;;;;;;;1.70;0.30;;;;;;;18.03;52.76;93569.50;5034817;28;20037;-87
2022/10/23 09:42:59;;;;;;;0.30;0.30;;;;;;;18.01;52.41;93572.75;5017664;28;20037;-86
2022/10/23 09:45:28;;;;;;;0.20;0.20;;;;;;;18.02;52.36;93576.97;5034671;28;20047;-86
2022/10/23 09:48:07;;;;;;;0.28;0.28;;;;;;;18.01;52.44;93574.72;5035097;28;20028;-86
2022/10/23 09:50:33;;;;;;;0.20;0.10;;;;;;;18.04;52.42;93569.00;5034871;28;20197;-86
2022/10/23 09:52:58;;;;;;;0.17;0.17;;;;;;;18.06;52.36;93565.75;5034643;28;20024;-89
2022/10/23 09:55:24;;;;;;;0.10;0.10;;;;;;;18.05;52.77;93567.00;5033839;28;20110;-87
2022/10/23 09:57:49;;;;;;;0.20;0.20;;;;;;;18.04;52.70;93568.25;5034159;28;20029;-87
2022/10/23 10:00:22;;;;;;;0.10;0.10;;;;;;;18.03;52.73;93559.31;5030114;28;20488;-86
2022/10/23 10:03:02;;;;;;;0.15;0.15;;;;;;;18.02;52.85;93566.03;5048118;28;20040;-86
2022/10/23 10:05:34;;;;;;;0.10;0.10;;;;;;;18.03;52.86;93562.03;5033751;28;20108;-86
2022/10/23 10:08:21;;;;;;;0.20;0.20;;;;;;;18.03;52.45;93569.50;5034729;28;20025;-87
2022/10/23 10:10:56;;;;;;;0.30;0.20;;;;;;;18.03;52.67;93578.47;5068220;28;20418;-86
2022/10/23 10:13:37;;;;;;;0.30;0.30;;;;;;;18.03;52.44;93573.00;5050168;28;20029;-86
2022/10/23 10:16:08;;;;;;;0.25;0.25;;;;;;;18.04;52.61;93574.47;5068972;28;20051;-87
2022/10/23 10:18:36;;;;;;;;;;;;;;;18.03;52.53;93575.72;5036860;28;20548;-87
2022/10/23 10:21:20;;;;;;;0.10;0.10;;;;;;;18.03;52.46;93580.44;5067524;28;20382;-86
2022/10/23 10:24:01;;;;;;;0.10;0.10;;;;;;;18.02;52.59;93576.22;5018328;28;20048;-86
2022/10/23 10:26:50;;;;;;;0.20;0.20;;;;;;;18.01;52.72;93563.78;5062234;28;20406;-86
2022/10/23 10:29:30;;;;;;;0.20;0.20;;;;;;;18.02;52.34;93566.03;5035321;28;20063;-86
2022/10/23 10:31:59;;;;;;;0.10;0.10;;;;;;;18.03;52.89;93555.81;5071130;28;20045;-86
2022/10/23 10:34:57;;;;;;;0.20;0.20;;;;;;;18.02;52.57;93557.06;5051037;28;20063;-88
2022/10/23 10:37:28;;;;;;;0.20;0.20;;;;;;;18.02;52.59;93548.88;5046645;28;20445;-86
2022/10/23 10:40:02;;;;;;;;;;;;;;;18.02;52.66;93549.63;5033195;28;20466;-87
2022/10/23 10:43:05;;;;;;;0.47;0.20;;;;;;;18.03;52.76;93547.63;5037421;28;19998;-86
2022/10/23 10:45:42;;;;;;;0.20;0.20;;;;;;;18.01;52.60;93550.13;5048234;28;20138;-86
2022/10/23 10:48:24;;;;;;;0.10;0.10;;;;;;;18.01;52.79;93552.84;5030590;28;20044;-89
2022/10/23 10:51:02;;;;;;;0.20;0.20;;;;;;;18.00;52.71;93557.56;4984819;28;20069;-86
2022/10/23 10:53:58;;;;;;;0.13;0.13;;;;;;;18.00;52.74;93543.91;4992376;28;20079;-86
2022/10/23 10:56:24;;;;;;;0.20;0.20;;;;;;;18.04;52.68;93540.91;5018013;28;20053;-88
2022/10/23 10:58:52;;;;;;;0.20;0.20;;;;;;;18.03;52.89;93536.69;5028963;28;20033;-86
2022/10/23 11:01:30;;;;;;;0.50;0.20;;;;;;;18.02;52.66;93530.47;5010099;28;20426;-89
2022/10/23 11:04:02;;;;;;;0.10;0.10;;;;;;;18.03;52.92;93521.00;4988879;28;20104;-86
2022/10/23 11:06:29;;;;;;;0.20;0.20;;;;;;;18.03;52.89;93523.00;4985811;28;20112;-86
2022/10/23 11:08:54;;;;;;;0.10;0.10;;;;;;;18.03;52.71;93521.00;4991298;28;20091;-86
2022/10/23 11:11:23;;;;;;;0.20;0.10;;;;;;;18.03;52.81;93510.06;5013727;28;20046;-86
2022/10/23 11:13:52;;;;;;;0.10;0.10;;;;;;;18.03;52.78;93515.53;4988636;28;20046;-86
2022/10/23 11:16:22;;;;;;;0.10;0.10;;;;;;;18.02;52.58;93514.06;4984456;28;20061;-86
2022/10/23 11:19:03;;;;;;;0.30;0.30;;;;;;;18.03;52.58;93510.06;4988459;28;20030;-86
2022/10/23 11:21:30;;;;;;;;;;;;;;;18.03;52.87;93499.13;5019878;28;20075;-86
2022/10/23 11:24:22;;;;;;;0.10;0.10;;;;;;;18.02;52.57;93496.91;5046606;28;19921;-87
2022/10/23 11:26:57;;;;;;;0.10;0.10;;;;;;;18.02;52.61;93489.44;5029169;28;20037;-86
2022/10/23 11:29:43;;;;;;;0.10;0.10;;;;;;;18.02;52.35;93485.97;5013179;28;20127;-86
2022/10/23 11:32:42;;;;;;;0.20;0.20;;;;;;;18.01;52.37;93487.19;5054664;28;20041;-86
2022/10/23 11:35:12;;;;;;;0.30;0.13;;;;;;;18.02;52.33;93483.97;5014194;28;20495;-90
2022/10/23 11:37:37;;;;;;;0.10;0.10;;;;;;;18.01;52.47;93474.28;5045747;28;20423;-86
2022/10/23 11:40:05;;;;;;;0.10;0.10;;;;;;;18.04;52.70;93483.47;5029553;28;20470;-89
2022/10/23 11:42:32;;;;;;;0.13;0.10;;;;;;;18.04;52.60;93469.78;5064255;28;20543;-86
2022/10/23 11:44:57;;;;;;;0.20;0.20;;;;;;;18.03;52.67;93469.03;5059283;28;20131;-87